sensor_id;sensor_type;location;lat;lon;timestamp;pressure;altitude;pressure_sealevel;temperature
64916;BMP280;51427;-27.442;153.014;2022-07-12T00:01:45;101667.59;;;20.29
64916;BMP280;51427;-27.442;153.014;2022-07-12T00:04:13;101659.31;;;21.12
64916;BMP280;51427;-27.442;153.014;2022-07-12T00:06:40;101645.44;;;21.28
64916;BMP280;51427;-27.442;153.014;2022-07-12T00:09:09;101651.03;;;20.38
64916;BMP280;51427;-27.442;153.014;2022-07-12T00:11:37;101653.28;;;21.49
64916;BMP280;51427;-27.442;153.014;2022-07-12T00:14:05;101645.13;;;21.97
64916;BMP280;51427;-27.442;153.014;2022-07-12T00:16:33;101641.72;;;21.50
64916;BMP280;51427;-27.442;153.014;2022-07-12T00:19:01;101658.47;;;22.05
64916;BMP280;51427;-27.442;153.014;2022-07-12T00:21:28;101640.34;;;21.65
64916;BMP280;51427;-27.442;153.014;2022-07-12T00:23:56;101625.16;;;21.10
64916;BMP280;51427;-27.442;153.014;2022-07-12T00:26:23;101642.38;;;21.24
64916;BMP280;51427;-27.442;153.014;2022-07-12T00:28:51;101635.06;;;21.55
64916;BMP280;51427;-27.442;153.014;2022-07-12T00:31:19;101625.38;;;20.70
64916;BMP280;51427;-27.442;153.014;2022-07-12T00:33:47;101624.66;;;20.29
64916;BMP280;51427;-27.442;153.014;2022-07-12T00:36:15;101619.78;;;21.30
64916;BMP280;51427;-27.442;153.014;2022-07-12T00:38:42;101612.28;;;21.64
64916;BMP280;51427;-27.442;153.014;2022-07-12T00:41:10;101605.34;;;22.27
64916;BMP280;51427;-27.442;153.014;2022-07-12T00:43:37;101614.72;;;21.93
64916;BMP280;51427;-27.442;153.014;2022-07-12T00:46:05;101624.66;;;22.18
64916;BMP280;51427;-27.442;153.014;2022-07-12T00:48:33;101602.50;;;22.38
64916;BMP280;51427;-27.442;153.014;2022-07-12T00:51:02;101610.03;;;22.86
64916;BMP280;51427;-27.442;153.014;2022-07-12T00:53:29;101606.06;;;23.34
64916;BMP280;51427;-27.442;153.014;2022-07-12T00:55:58;101590.00;;;22.57
64916;BMP280;51427;-27.442;153.014;2022-07-12T00:58:26;101583.94;;;22.11
64916;BMP280;51427;-27.442;153.014;2022-07-12T01:00:59;101591.09;;;22.81
64916;BMP280;51427;-27.442;153.014;2022-07-12T01:03:27;101583.81;;;23.45
64916;BMP280;51427;-27.442;153.014;2022-07-12T01:05:55;101581.97;;;23.80
64916;BMP280;51427;-27.442;153.014;2022-07-12T01:08:24;101571.78;;;24.26
64916;BMP280;51427;-27.442;153.014;2022-07-12T01:10:53;101578.50;;;23.87
64916;BMP280;51427;-27.442;153.014;2022-07-12T01:13:23;101572.00;;;24.07
64916;BMP280;51427;-27.442;153.014;2022-07-12T01:15:51;101563.31;;;24.56
64916;BMP280;51427;-27.442;153.014;2022-07-12T01:18:20;101548.06;;;24.16
64916;BMP280;51427;-27.442;153.014;2022-07-12T01:20:48;101535.25;;;25.26
64916;BMP280;51427;-27.442;153.014;2022-07-12T01:23:16;101532.47;;;24.55
64916;BMP280;51427;-27.442;153.014;2022-07-12T01:25:44;101525.41;;;24.30
64916;BMP280;51427;-27.442;153.014;2022-07-12T01:28:12;101526.75;;;24.75
64916;BMP280;51427;-27.442;153.014;2022-07-12T01:30:41;101528.50;;;23.34
64916;BMP280;51427;-27.442;153.014;2022-07-12T01:33:08;101513.16;;;23.88
64916;BMP280;51427;-27.442;153.014;2022-07-12T01:35:36;101516.22;;;24.42
64916;BMP280;51427;-27.442;153.014;2022-07-12T01:38:04;101504.34;;;24.54
64916;BMP280;51427;-27.442;153.014;2022-07-12T01:40:32;101493.03;;;24.52
64916;BMP280;51427;-27.442;153.014;2022-07-12T01:43:02;101480.19;;;23.32
64916;BMP280;51427;-27.442;153.014;2022-07-12T01:45:30;101479.34;;;22.71
64916;BMP280;51427;-27.442;153.014;2022-07-12T01:47:58;101467.09;;;22.70
64916;BMP280;51427;-27.442;153.014;2022-07-12T01:50:26;101462.91;;;23.70
64916;BMP280;51427;-27.442;153.014;2022-07-12T01:52:53;101449.75;;;22.51
64916;BMP280;51427;-27.442;153.014;2022-07-12T01:55:21;101434.94;;;23.10
64916;BMP280;51427;-27.442;153.014;2022-07-12T01:57:50;101434.94;;;22.75
64916;BMP280;51427;-27.442;153.014;2022-07-12T02:00:18;101425.66;;;22.71
64916;BMP280;51427;-27.442;153.014;2022-07-12T02:02:49;101420.66;;;23.28
64916;BMP280;51427;-27.442;153.014;2022-07-12T02:05:17;101417.56;;;22.72
64916;BMP280;51427;-27.442;153.014;2022-07-12T02:07:44;101414.53;;;21.62
64916;BMP280;51427;-27.442;153.014;2022-07-12T02:10:12;101411.94;;;22.06
64916;BMP280;51427;-27.442;153.014;2022-07-12T02:12:40;101408.97;;;22.53
64916;BMP280;51427;-27.442;153.014;2022-07-12T02:15:08;101407.34;;;23.70
64916;BMP280;51427;-27.442;153.014;2022-07-12T02:17:37;101397.88;;;24.09
64916;BMP280;51427;-27.442;153.014;2022-07-12T02:20:04;101394.28;;;24.26
64916;BMP280;51427;-27.442;153.014;2022-07-12T02:22:32;101385.56;;;24.41
64916;BMP280;51427;-27.442;153.014;2022-07-12T02:25:01;101385.22;;;23.87
64916;BMP280;51427;-27.442;153.014;2022-07-12T02:27:29;101382.59;;;22.96
64916;BMP280;51427;-27.442;153.014;2022-07-12T02:29:56;101375.09;;;22.91
64916;BMP280;51427;-27.442;153.014;2022-07-12T02:32:24;101363.69;;;23.41
64916;BMP280;51427;-27.442;153.014;2022-07-12T02:34:51;101365.34;;;23.42
64916;BMP280;51427;-27.442;153.014;2022-07-12T02:37:19;101360.19;;;23.66
64916;BMP280;51427;-27.442;153.014;2022-07-12T02:39:47;101358.94;;;23.19
64916;BMP280;51427;-27.442;153.014;2022-07-12T02:42:14;101354.31;;;23.55
64916;BMP280;51427;-27.442;153.014;2022-07-12T02:44:42;101352.31;;;23.57
64916;BMP280;51427;-27.442;153.014;2022-07-12T02:47:09;101361.19;;;23.40
64916;BMP280;51427;-27.442;153.014;2022-07-12T02:49:37;101350.50;;;23.16
64916;BMP280;51427;-27.442;153.014;2022-07-12T02:52:05;101347.94;;;23.32
64916;BMP280;51427;-27.442;153.014;2022-07-12T02:54:32;101333.78;;;23.49
64916;BMP280;51427;-27.442;153.014;2022-07-12T02:57:00;101325.38;;;23.61
64916;BMP280;51427;-27.442;153.014;2022-07-12T02:59:28;101320.88;;;23.54
64916;BMP280;51427;-27.442;153.014;2022-07-12T03:01:55;101324.13;;;22.81
64916;BMP280;51427;-27.442;153.014;2022-07-12T03:04:24;101325.63;;;22.59
64916;BMP280;51427;-27.442;153.014;2022-07-12T03:06:52;101319.69;;;23.07
64916;BMP280;51427;-27.442;153.014;2022-07-12T03:09:19;101312.81;;;24.12
64916;BMP280;51427;-27.442;153.014;2022-07-12T03:11:47;101311.78;;;23.48
64916;BMP280;51427;-27.442;153.014;2022-07-12T03:14:15;101300.31;;;23.73
64916;BMP280;51427;-27.442;153.014;2022-07-12T03:16:42;101297.66;;;23.32
64916;BMP280;51427;-27.442;153.014;2022-07-12T03:19:10;101299.22;;;23.09
64916;BMP280;51427;-27.442;153.014;2022-07-12T03:21:37;101301.41;;;23.62
64916;BMP280;51427;-27.442;153.014;2022-07-12T03:24:05;101306.13;;;23.35
64916;BMP280;51427;-27.442;153.014;2022-07-12T03:26:33;101290.47;;;23.50
64916;BMP280;51427;-27.442;153.014;2022-07-12T03:29:02;101291.56;;;22.98
64916;BMP280;51427;-27.442;153.014;2022-07-12T03:31:31;101290.75;;;23.39
64916;BMP280;51427;-27.442;153.014;2022-07-12T03:33:59;101281.50;;;23.02
64916;BMP280;51427;-27.442;153.014;2022-07-12T03:36:26;101287.44;;;23.37
64916;BMP280;51427;-27.442;153.014;2022-07-12T03:38:54;101290.13;;;23.45
64916;BMP280;51427;-27.442;153.014;2022-07-12T03:41:21;101282.00;;;24.19
64916;BMP280;51427;-27.442;153.014;2022-07-12T03:43:49;101276.44;;;23.57
64916;BMP280;51427;-27.442;153.014;2022-07-12T03:46:17;101272.72;;;24.07
64916;BMP280;51427;-27.442;153.014;2022-07-12T03:48:44;101271.28;;;23.48
64916;BMP280;51427;-27.442;153.014;2022-07-12T03:51:12;101272.91;;;24.13
64916;BMP280;51427;-27.442;153.014;2022-07-12T03:53:39;101280.84;;;23.49
64916;BMP280;51427;-27.442;153.014;2022-07-12T03:56:07;101271.94;;;23.42
64916;BMP280;51427;-27.442;153.014;2022-07-12T03:58:35;101277.69;;;23.94
64916;BMP280;51427;-27.442;153.014;2022-07-12T04:01:03;101277.84;;;24.01
64916;BMP280;51427;-27.442;153.014;2022-07-12T04:03:31;101268.41;;;23.82
64916;BMP280;51427;-27.442;153.014;2022-07-12T04:05:58;101262.94;;;23.76
64916;BMP280;51427;-27.442;153.014;2022-07-12T04:08:26;101259.63;;;23.66
64916;BMP280;51427;-27.442;153.014;2022-07-12T04:10:53;101267.59;;;23.33
64916;BMP280;51427;-27.442;153.014;2022-07-12T04:13:22;101272.38;;;23.29
64916;BMP280;51427;-27.442;153.014;2022-07-12T04:15:49;101263.56;;;23.21
64916;BMP280;51427;-27.442;153.014;2022-07-12T04:18:17;101274.59;;;22.33
64916;BMP280;51427;-27.442;153.014;2022-07-12T04:20:44;101275.09;;;22.19
64916;BMP280;51427;-27.442;153.014;2022-07-12T04:23:12;101282.66;;;21.79
64916;BMP280;51427;-27.442;153.014;2022-07-12T04:25:40;101280.13;;;22.22
64916;BMP280;51427;-27.442;153.014;2022-07-12T04:28:07;101284.41;;;22.23
64916;BMP280;51427;-27.442;153.014;2022-07-12T04:30:35;101302.28;;;21.41
64916;BMP280;51427;-27.442;153.014;2022-07-12T04:33:02;101294.56;;;22.18
64916;BMP280;51427;-27.442;153.014;2022-07-12T04:35:30;101297.25;;;22.43
64916;BMP280;51427;-27.442;153.014;2022-07-12T04:37:57;101293.16;;;22.91
64916;BMP280;51427;-27.442;153.014;2022-07-12T04:40:25;101300.75;;;22.44
64916;BMP280;51427;-27.442;153.014;2022-07-12T04:42:52;101303.41;;;21.48
64916;BMP280;51427;-27.442;153.014;2022-07-12T04:45:20;101297.00;;;21.41
64916;BMP280;51427;-27.442;153.014;2022-07-12T04:47:48;101297.00;;;22.29
64916;BMP280;51427;-27.442;153.014;2022-07-12T04:50:15;101296.81;;;21.78
64916;BMP280;51427;-27.442;153.014;2022-07-12T04:52:43;101299.38;;;21.88
64916;BMP280;51427;-27.442;153.014;2022-07-12T04:55:11;101297.25;;;21.21
64916;BMP280;51427;-27.442;153.014;2022-07-12T04:57:38;101303.25;;;21.13
64916;BMP280;51427;-27.442;153.014;2022-07-12T05:00:07;101303.19;;;21.32
64916;BMP280;51427;-27.442;153.014;2022-07-12T05:02:35;101305.81;;;20.96
64916;BMP280;51427;-27.442;153.014;2022-07-12T05:05:02;101305.34;;;20.55
64916;BMP280;51427;-27.442;153.014;2022-07-12T05:07:30;101294.84;;;21.36
64916;BMP280;51427;-27.442;153.014;2022-07-12T05:09:57;101294.56;;;21.30
64916;BMP280;51427;-27.442;153.014;2022-07-12T05:12:25;101289.56;;;21.80
64916;BMP280;51427;-27.442;153.014;2022-07-12T05:14:53;101292.34;;;21.35
64916;BMP280;51427;-27.442;153.014;2022-07-12T05:17:20;101287.78;;;21.98
64916;BMP280;51427;-27.442;153.014;2022-07-12T05:19:48;101289.78;;;21.43
64916;BMP280;51427;-27.442;153.014;2022-07-12T05:22:15;101295.47;;;21.48
64916;BMP280;51427;-27.442;153.014;2022-07-12T05:24:43;101303.13;;;21.41
64916;BMP280;51427;-27.442;153.014;2022-07-12T05:27:11;101296.16;;;21.23
64916;BMP280;51427;-27.442;153.014;2022-07-12T05:29:38;101304.34;;;21.74
64916;BMP280;51427;-27.442;153.014;2022-07-12T05:32:06;101301.63;;;21.66
64916;BMP280;51427;-27.442;153.014;2022-07-12T05:34:34;101296.28;;;22.10
64916;BMP280;51427;-27.442;153.014;2022-07-12T05:37:01;101303.19;;;21.32
64916;BMP280;51427;-27.442;153.014;2022-07-12T05:39:29;101298.34;;;20.91
64916;BMP280;51427;-27.442;153.014;2022-07-12T05:42:00;101305.38;;;20.36
64916;BMP280;51427;-27.442;153.014;2022-07-12T05:44:28;101301.19;;;20.62
64916;BMP280;51427;-27.442;153.014;2022-07-12T05:46:55;101302.13;;;20.89
64916;BMP280;51427;-27.442;153.014;2022-07-12T05:49:23;101303.53;;;21.10
64916;BMP280;51427;-27.442;153.014;2022-07-12T05:51:51;101301.13;;;21.26
64916;BMP280;51427;-27.442;153.014;2022-07-12T05:54:36;101315.28;;;19.76
64916;BMP280;51427;-27.442;153.014;2022-07-12T05:57:04;101318.19;;;19.64
64916;BMP280;51427;-27.442;153.014;2022-07-12T05:59:34;101311.47;;;20.36
64916;BMP280;51427;-27.442;153.014;2022-07-12T06:02:01;101316.44;;;20.39
64916;BMP280;51427;-27.442;153.014;2022-07-12T06:04:29;101322.25;;;19.38
64916;BMP280;51427;-27.442;153.014;2022-07-12T06:06:57;101316.69;;;20.65
64916;BMP280;51427;-27.442;153.014;2022-07-12T06:09:24;101335.56;;;20.32
64916;BMP280;51427;-27.442;153.014;2022-07-12T06:11:52;101321.03;;;20.37
64916;BMP280;51427;-27.442;153.014;2022-07-12T06:14:20;101331.41;;;20.48
64916;BMP280;51427;-27.442;153.014;2022-07-12T06:16:48;101325.16;;;20.59
64916;BMP280;51427;-27.442;153.014;2022-07-12T06:19:16;101330.03;;;20.26
64916;BMP280;51427;-27.442;153.014;2022-07-12T06:21:43;101336.41;;;20.33
64916;BMP280;51427;-27.442;153.014;2022-07-12T06:24:11;101335.31;;;20.16
64916;BMP280;51427;-27.442;153.014;2022-07-12T06:26:38;101337.53;;;19.63
64916;BMP280;51427;-27.442;153.014;2022-07-12T06:29:06;101328.25;;;20.26
64916;BMP280;51427;-27.442;153.014;2022-07-12T06:31:35;101341.25;;;19.99
64916;BMP280;51427;-27.442;153.014;2022-07-12T06:34:03;101341.25;;;19.99
64916;BMP280;51427;-27.442;153.014;2022-07-12T06:36:30;101335.84;;;20.29
64916;BMP280;51427;-27.442;153.014;2022-07-12T06:38:58;101339.19;;;18.95
64916;BMP280;51427;-27.442;153.014;2022-07-12T06:41:26;101335.31;;;19.58
64916;BMP280;51427;-27.442;153.014;2022-07-12T06:43:55;101333.72;;;19.76
64916;BMP280;51427;-27.442;153.014;2022-07-12T06:46:23;101337.97;;;19.68
64916;BMP280;51427;-27.442;153.014;2022-07-12T06:48:50;101331.34;;;19.83
64916;BMP280;51427;-27.442;153.014;2022-07-12T06:51:17;101332.34;;;19.33
64916;BMP280;51427;-27.442;153.014;2022-07-12T06:53:44;101336.75;;;19.72
64916;BMP280;51427;-27.442;153.014;2022-07-12T06:56:11;101342.59;;;19.36
64916;BMP280;51427;-27.442;153.014;2022-07-12T06:58:39;101339.69;;;19.39
64916;BMP280;51427;-27.442;153.014;2022-07-12T07:01:06;101331.13;;;19.07
64916;BMP280;51427;-27.442;153.014;2022-07-12T07:03:33;101321.66;;;19.25
64916;BMP280;51427;-27.442;153.014;2022-07-12T07:06:01;101324.81;;;18.99
64916;BMP280;51427;-27.442;153.014;2022-07-12T07:08:28;101310.34;;;18.64
64916;BMP280;51427;-27.442;153.014;2022-07-12T07:10:57;101307.94;;;18.31
64916;BMP280;51427;-27.442;153.014;2022-07-12T07:13:24;101309.34;;;18.35
64916;BMP280;51427;-27.442;153.014;2022-07-12T07:15:52;101306.28;;;17.35
64916;BMP280;51427;-27.442;153.014;2022-07-12T07:18:19;101282.22;;;17.08
64916;BMP280;51427;-27.442;153.014;2022-07-12T07:20:46;101289.34;;;16.74
64916;BMP280;51427;-27.442;153.014;2022-07-12T07:23:13;101267.84;;;18.09
64916;BMP280;51427;-27.442;153.014;2022-07-12T07:25:44;101271.06;;;18.12
64916;BMP280;51427;-27.442;153.014;2022-07-12T07:28:12;101278.72;;;18.65
64916;BMP280;51427;-27.442;153.014;2022-07-12T07:30:40;101261.34;;;18.44
64916;BMP280;51427;-27.442;153.014;2022-07-12T07:33:23;101254.72;;;16.81
64916;BMP280;51427;-27.442;153.014;2022-07-12T07:35:51;101241.03;;;16.89
64916;BMP280;51427;-27.442;153.014;2022-07-12T07:38:20;101256.63;;;17.12
64916;BMP280;51427;-27.442;153.014;2022-07-12T07:40:47;101256.22;;;18.11
64916;BMP280;51427;-27.442;153.014;2022-07-12T07:43:14;101262.41;;;17.59
64916;BMP280;51427;-27.442;153.014;2022-07-12T07:45:41;101256.16;;;18.53
64916;BMP280;51427;-27.442;153.014;2022-07-12T07:48:08;101265.06;;;18.71
64916;BMP280;51427;-27.442;153.014;2022-07-12T07:50:35;101287.44;;;17.41
64916;BMP280;51427;-27.442;153.014;2022-07-12T07:53:02;101283.91;;;19.45
64916;BMP280;51427;-27.442;153.014;2022-07-12T07:55:31;101275.59;;;19.98
64916;BMP280;51427;-27.442;153.014;2022-07-12T07:57:57;101279.84;;;19.80
64916;BMP280;51427;-27.442;153.014;2022-07-12T08:00:26;101302.41;;;18.95
64916;BMP280;51427;-27.442;153.014;2022-07-12T08:02:55;101299.06;;;19.13
64916;BMP280;51427;-27.442;153.014;2022-07-12T08:05:22;101308.59;;;18.64
64916;BMP280;51427;-27.442;153.014;2022-07-12T08:07:49;101310.09;;;18.67
64916;BMP280;51427;-27.442;153.014;2022-07-12T08:10:16;101322.69;;;18.43
64916;BMP280;51427;-27.442;153.014;2022-07-12T08:12:43;101323.97;;;18.69
64916;BMP280;51427;-27.442;153.014;2022-07-12T08:15:11;101318.41;;;19.12
64916;BMP280;51427;-27.442;153.014;2022-07-12T08:17:38;101320.75;;;18.65
64916;BMP280;51427;-27.442;153.014;2022-07-12T08:20:05;101319.41;;;19.00
64916;BMP280;51427;-27.442;153.014;2022-07-12T08:22:31;101308.47;;;19.55
64916;BMP280;51427;-27.442;153.014;2022-07-12T08:24:58;101310.84;;;19.67
64916;BMP280;51427;-27.442;153.014;2022-07-12T08:27:26;101320.91;;;18.12
64916;BMP280;51427;-27.442;153.014;2022-07-12T08:29:53;101319.44;;;18.19
64916;BMP280;51427;-27.442;153.014;2022-07-12T08:32:20;101317.09;;;18.57
64916;BMP280;51427;-27.442;153.014;2022-07-12T08:34:47;101309.72;;;18.71
64916;BMP280;51427;-27.442;153.014;2022-07-12T08:37:14;101310.75;;;17.77
64916;BMP280;51427;-27.442;153.014;2022-07-12T08:39:41;101301.28;;;17.32
64916;BMP280;51427;-27.442;153.014;2022-07-12T08:42:08;101297.41;;;17.69
64916;BMP280;51427;-27.442;153.014;2022-07-12T08:44:41;101285.22;;;17.79
64916;BMP280;51427;-27.442;153.014;2022-07-12T08:47:08;101286.88;;;17.91
64916;BMP280;51427;-27.442;153.014;2022-07-12T08:49:36;101290.25;;;18.74
64916;BMP280;51427;-27.442;153.014;2022-07-12T08:52:25;101296.19;;;18.15
64916;BMP280;51427;-27.442;153.014;2022-07-12T08:54:52;101311.84;;;17.09
64916;BMP280;51427;-27.442;153.014;2022-07-12T08:57:30;101316.81;;;17.77
64916;BMP280;51427;-27.442;153.014;2022-07-12T09:00:01;101313.28;;;19.11
64916;BMP280;51427;-27.442;153.014;2022-07-12T09:02:28;101318.78;;;19.38
64916;BMP280;51427;-27.442;153.014;2022-07-12T09:05:08;101317.84;;;19.96
64916;BMP280;51427;-27.442;153.014;2022-07-12T09:07:36;101317.84;;;19.48
64916;BMP280;51427;-27.442;153.014;2022-07-12T09:10:08;101319.25;;;19.61
64916;BMP280;51427;-27.442;153.014;2022-07-12T09:12:36;101324.00;;;19.77
64916;BMP280;51427;-27.442;153.014;2022-07-12T09:15:20;101325.59;;;19.88
64916;BMP280;51427;-27.442;153.014;2022-07-12T09:17:55;101328.34;;;19.87
64916;BMP280;51427;-27.442;153.014;2022-07-12T09:20:24;101323.66;;;20.00
64916;BMP280;51427;-27.442;153.014;2022-07-12T09:22:57;101325.03;;;20.23
64916;BMP280;51427;-27.442;153.014;2022-07-12T09:25:25;101338.63;;;20.09
64916;BMP280;51427;-27.442;153.014;2022-07-12T09:27:58;101342.72;;;19.05
64916;BMP280;51427;-27.442;153.014;2022-07-12T09:30:28;101353.69;;;18.99
64916;BMP280;51427;-27.442;153.014;2022-07-12T09:33:02;101352.00;;;18.89
64916;BMP280;51427;-27.442;153.014;2022-07-12T09:38:52;101356.16;;;18.91
64916;BMP280;51427;-27.442;153.014;2022-07-12T09:41:20;101347.91;;;18.55
64916;BMP280;51427;-27.442;153.014;2022-07-12T09:43:48;101354.53;;;18.07
64916;BMP280;51427;-27.442;153.014;2022-07-12T09:46:16;101338.88;;;18.68
64916;BMP280;51427;-27.442;153.014;2022-07-12T09:48:44;101336.69;;;18.53
64916;BMP280;51427;-27.442;153.014;2022-07-12T09:51:17;101331.97;;;17.74
64916;BMP280;51427;-27.442;153.014;2022-07-12T09:53:45;101336.31;;;18.37
64916;BMP280;51427;-27.442;153.014;2022-07-12T09:56:14;101341.22;;;18.71
64916;BMP280;51427;-27.442;153.014;2022-07-12T09:59:00;101341.31;;;18.60
64916;BMP280;51427;-27.442;153.014;2022-07-12T10:01:31;101333.94;;;18.34
64916;BMP280;51427;-27.442;153.014;2022-07-12T10:03:59;101342.66;;;18.55
64916;BMP280;51427;-27.442;153.014;2022-07-12T10:06:28;101350.19;;;18.28
64916;BMP280;51427;-27.442;153.014;2022-07-12T10:08:57;101345.22;;;19.06
64916;BMP280;51427;-27.442;153.014;2022-07-12T10:11:24;101352.97;;;18.67
64916;BMP280;51427;-27.442;153.014;2022-07-12T10:13:52;101354.34;;;19.02
64916;BMP280;51427;-27.442;153.014;2022-07-12T10:16:27;101358.41;;;19.45
64916;BMP280;51427;-27.442;153.014;2022-07-12T10:19:23;101378.75;;;19.23
64916;BMP280;51427;-27.442;153.014;2022-07-12T10:21:52;101384.34;;;18.89
64916;BMP280;51427;-27.442;153.014;2022-07-12T10:32:34;101389.66;;;17.74
64916;BMP280;51427;-27.442;153.014;2022-07-12T10:35:07;101398.75;;;18.54
64916;BMP280;51427;-27.442;153.014;2022-07-12T10:37:38;101406.66;;;18.74
64916;BMP280;51427;-27.442;153.014;2022-07-12T10:43:11;101410.69;;;18.58
64916;BMP280;51427;-27.442;153.014;2022-07-12T10:45:36;101422.19;;;19.18
64916;BMP280;51427;-27.442;153.014;2022-07-12T10:48:09;101427.59;;;18.65
64916;BMP280;51427;-27.442;153.014;2022-07-12T10:56:16;101431.59;;;19.20
64916;BMP280;51427;-27.442;153.014;2022-07-12T10:58:52;101427.09;;;18.71
64916;BMP280;51427;-27.442;153.014;2022-07-12T11:01:29;101428.34;;;19.07
64916;BMP280;51427;-27.442;153.014;2022-07-12T11:06:30;101414.97;;;19.40
64916;BMP280;51427;-27.442;153.014;2022-07-12T11:09:02;101410.31;;;18.83
64916;BMP280;51427;-27.442;153.014;2022-07-12T11:11:32;101411.97;;;18.32
64916;BMP280;51427;-27.442;153.014;2022-07-12T11:14:00;101405.56;;;19.17
64916;BMP280;51427;-27.442;153.014;2022-07-12T11:16:29;101402.59;;;19.31
64916;BMP280;51427;-27.442;153.014;2022-07-12T11:18:57;101403.00;;;17.82
64916;BMP280;51427;-27.442;153.014;2022-07-12T11:21:24;101394.44;;;17.36
64916;BMP280;51427;-27.442;153.014;2022-07-12T11:23:52;101385.91;;;18.92
64916;BMP280;51427;-27.442;153.014;2022-07-12T11:26:20;101389.38;;;17.99
64916;BMP280;51427;-27.442;153.014;2022-07-12T11:28:47;101386.88;;;16.54
64916;BMP280;51427;-27.442;153.014;2022-07-12T11:31:17;101361.53;;;18.29
64916;BMP280;51427;-27.442;153.014;2022-07-12T11:33:49;101359.38;;;18.54
64916;BMP280;51427;-27.442;153.014;2022-07-12T11:36:17;101348.63;;;16.86
64916;BMP280;51427;-27.442;153.014;2022-07-12T11:38:46;101356.00;;;16.70
64916;BMP280;51427;-27.442;153.014;2022-07-12T11:41:14;101340.53;;;16.78
64916;BMP280;51427;-27.442;153.014;2022-07-12T11:43:42;101343.06;;;16.45
64916;BMP280;51427;-27.442;153.014;2022-07-12T11:46:10;101331.47;;;16.71
64916;BMP280;51427;-27.442;153.014;2022-07-12T11:48:37;101338.16;;;18.26
64916;BMP280;51427;-27.442;153.014;2022-07-12T11:51:07;101334.50;;;18.06
64916;BMP280;51427;-27.442;153.014;2022-07-12T11:53:36;101349.88;;;17.36
64916;BMP280;51427;-27.442;153.014;2022-07-12T11:56:05;101343.28;;;18.27
64916;BMP280;51427;-27.442;153.014;2022-07-12T11:58:33;101331.50;;;18.42
64916;BMP280;51427;-27.442;153.014;2022-07-12T12:01:05;101335.25;;;18.90
64916;BMP280;51427;-27.442;153.014;2022-07-12T12:03:46;101327.34;;;19.30
64916;BMP280;51427;-27.442;153.014;2022-07-12T12:06:14;101318.88;;;18.77
64916;BMP280;51427;-27.442;153.014;2022-07-12T12:08:42;101327.97;;;19.13
64916;BMP280;51427;-27.442;153.014;2022-07-12T12:11:11;101326.47;;;19.20
64916;BMP280;51427;-27.442;153.014;2022-07-12T12:13:38;101312.75;;;19.56
64916;BMP280;51427;-27.442;153.014;2022-07-12T12:16:06;101311.09;;;19.55
64916;BMP280;51427;-27.442;153.014;2022-07-12T12:18:39;101304.75;;;19.67
64916;BMP280;51427;-27.442;153.014;2022-07-12T12:21:11;101307.78;;;18.12
64916;BMP280;51427;-27.442;153.014;2022-07-12T12:23:40;101303.19;;;17.41
64916;BMP280;51427;-27.442;153.014;2022-07-12T12:26:17;101305.91;;;18.55
64916;BMP280;51427;-27.442;153.014;2022-07-12T12:28:54;101303.47;;;18.92
64916;BMP280;51427;-27.442;153.014;2022-07-12T12:31:23;101295.72;;;18.91
64916;BMP280;51427;-27.442;153.014;2022-07-12T12:33:54;101301.31;;;19.27
64916;BMP280;51427;-27.442;153.014;2022-07-12T12:36:26;101303.41;;;19.03
64916;BMP280;51427;-27.442;153.014;2022-07-12T12:38:59;101311.81;;;19.18
64916;BMP280;51427;-27.442;153.014;2022-07-12T12:41:28;101323.81;;;18.91
64916;BMP280;51427;-27.442;153.014;2022-07-12T12:44:00;101325.91;;;18.96
64916;BMP280;51427;-27.442;153.014;2022-07-12T12:47:03;101337.78;;;17.88
64916;BMP280;51427;-27.442;153.014;2022-07-12T12:49:51;101334.63;;;17.63
64916;BMP280;51427;-27.442;153.014;2022-07-12T12:52:19;101326.84;;;18.14
64916;BMP280;51427;-27.442;153.014;2022-07-12T12:54:46;101322.84;;;17.47
64916;BMP280;51427;-27.442;153.014;2022-07-12T12:57:13;101318.28;;;18.12
64916;BMP280;51427;-27.442;153.014;2022-07-12T12:59:40;101316.03;;;17.55
64916;BMP280;51427;-27.442;153.014;2022-07-12T13:02:08;101309.34;;;18.35
64916;BMP280;51427;-27.442;153.014;2022-07-12T13:04:37;101307.47;;;18.87
64916;BMP280;51427;-27.442;153.014;2022-07-12T13:07:05;101311.13;;;18.14
64916;BMP280;51427;-27.442;153.014;2022-07-12T13:09:33;101305.81;;;17.41
64916;BMP280;51427;-27.442;153.014;2022-07-12T13:12:00;101302.44;;;18.34
64916;BMP280;51427;-27.442;153.014;2022-07-12T13:14:27;101302.31;;;18.76
64916;BMP280;51427;-27.442;153.014;2022-07-12T13:16:54;101316.75;;;17.13
64916;BMP280;51427;-27.442;153.014;2022-07-12T13:19:22;101327.31;;;16.34
64916;BMP280;51427;-27.442;153.014;2022-07-12T13:21:51;101310.41;;;16.83
64916;BMP280;51427;-27.442;153.014;2022-07-12T13:24:19;101320.97;;;16.60
64916;BMP280;51427;-27.442;153.014;2022-07-12T13:26:46;101328.22;;;15.40
64916;BMP280;51427;-27.442;153.014;2022-07-12T13:29:13;101320.59;;;15.37
64916;BMP280;51427;-27.442;153.014;2022-07-12T13:31:41;101322.16;;;16.22
64916;BMP280;51427;-27.442;153.014;2022-07-12T13:34:08;101303.91;;;17.32
64916;BMP280;51427;-27.442;153.014;2022-07-12T13:36:36;101306.25;;;17.68
64916;BMP280;51427;-27.442;153.014;2022-07-12T13:39:03;101302.59;;;17.91
64916;BMP280;51427;-27.442;153.014;2022-07-12T13:41:48;101318.09;;;16.52
64916;BMP280;51427;-27.442;153.014;2022-07-12T13:44:14;101314.53;;;15.37
64916;BMP280;51427;-27.442;153.014;2022-07-12T13:46:42;101317.06;;;15.26
64916;BMP280;51427;-27.442;153.014;2022-07-12T13:49:09;101301.75;;;17.15
64916;BMP280;51427;-27.442;153.014;2022-07-12T13:51:35;101309.53;;;15.93
64916;BMP280;51427;-27.442;153.014;2022-07-12T13:54:03;101319.97;;;15.93